Irvington, AL (36544)

9:01 AM CDT on August 24, 2016 (GMT -0500)
Driftwood | | Change Station

Elev 89 ft 30.45 °N, 88.22 °W | Updated 5 seconds ago

Scattered Clouds
Scattered Clouds
86.0 °F
Feels Like 89 °F
N
1.1
Wind Variable Wind from East
Gusts 2.5 mph

Today
High -- | Low -- °F
--% Chance of Precip.
Yesterday
High -- | Low -- °F
Precip. -- in
Pressure 30.19 in
Visibility 10.0 miles
Clouds Few 1000 ft
Scattered Clouds 1800 ft
Heat Index 89 °F
Dew Point 68 °F
Humidity 54%
Rainfall 0.00 in
Snow Depth Not available.
6:25 AM 7:24 PM
Waning Gibbous, 57% visible
METAR KBFM 241353Z 07005KT 10SM FEW010 SCT018 29/26 A3018 RMK AO2 SLP221 T02890261
Pressure 30.19 in
Visibility 10.0 miles
Clouds Few 1000 ft
Scattered Clouds 1800 ft
Heat Index 89 °F
Dew Point 68 °F
Humidity 54%
Rainfall 0.00 in
Snow Depth Not available.
6:25 AM 7:24 PM
Waning Gibbous, 57% visible
METAR KBFM 241353Z 07005KT 10SM FEW010 SCT018 29/26 A3018 RMK AO2 SLP221 T02890261

10-Day Weather Forecast

Almanac

Astronomy

Aug. 24, 2016 Rise Set
Actual Time
Civil Twilight
Nautical Twilight
Astronomical Twilight
Moon
Length of Visible Light
Length of Day
Tomorrow will be .
, % of the Moon is Illuminated

Today's Extremes

State Highs State Lows

Community

WunderPhotos

Upload Photos

1,934,605 photos uploaded!

WunderBlog® & News

Nearby

Air Quality

  Air Quality AQ Index Pollutant
Not available.

Snow Depth

Station Depth Elevation

Earthquake Activity

City Distance Mag. Time & Date
Minimum magnitude displayed is 2.5.

Coastal Water Temperatures

Place Temperature

Stations

Nearby Weather Stations

Station Location Temp. Windchill Dew Point Humidity Wind Precip. Elev Updated Type
                   

Watches & Warnings

There are currently no watches in effect.